Latest Weather Observations for Holsworthy

IDN60801

Issued at 2:02 pm EDT Wednesday 29 March 2017 (issued every 30 minutes, with the page automatically refreshed every 10 minutes)

About weather observations | Map of weather stations | Latest weather observations for NSW | Other Formats
Station Details ID: 066161 Name: HOLSWORTHY AERODROME AWS Lat: -33.99 Lon: 150.95 Height: 68.16 m
Data from the previous 72 hours. | See also: Recent months at Holsworthy
Date/Time
EDT
Temp
°C
App
Temp
°C
Dew
Point
°C
Rel
Hum
%
Delta-T
°C
Wind Press
QNH
hPa
Press
MSL
hPa
Rain since
9am
mm
Dir  Spd
km/h
Gust
km/h
Spd
kts
Gust
kts
29/02:00pm 30.1 33.8 21.5 60 5.8 NNE 4 9 2 5 1008.4 1008.2 0.0
29/01:30pm 29.1 32.0 21.1 62 5.3 N 7 13 4 7 1008.9 1008.7 0.0
29/01:00pm 28.7 31.5 21.5 65 4.8 N 9 19 5 10 1009.6 1009.4 0.0
29/12:30pm 27.6 30.2 21.2 68 4.3 N 9 15 5 8 1010.2 1010.0 0.0
29/12:00pm 26.8 29.5 21.3 72 3.7 NNE 9 17 5 9 1010.6 1010.4 0.0
29/11:30am 25.1 27.6 19.9 73 3.4 WNW 6 9 3 5 1011.1 1010.9 0.0
29/11:14am 24.9 27.9 21.2 80 2.4 N 7 13 4 7 1011.4 1011.2 0.0
29/11:00am 23.8 26.7 20.7 83 2.0 N 6 9 3 5 1011.6 1011.4 0.0
29/10:30am 22.7 25.8 21.0 90 1.1 ENE 6 7 3 4 1011.9 1011.7 0.0
29/10:04am 22.0 26.0 20.6 92 0.9 CALM 0 0 0 0 1012.1 1011.9 0.0
29/10:00am 22.1 26.3 20.9 93 0.8 CALM 0 0 0 0 1012.2 1012.0 0.0
29/09:30am 21.4 24.3 20.6 95 0.5 ENE 6 9 3 5 1012.3 1012.1 0.0
29/09:25am 21.3 24.1 20.5 95 0.5 ENE 6 9 3 5 1012.3 1012.1 0.0
29/09:11am 21.1 23.9 20.4 96 0.5 E 6 9 3 5 1012.4 1012.2 0.0
29/09:00am 21.0 24.1 20.3 96 0.5 E 4 9 2 5 1012.4 1012.2 0.0
29/08:30am 20.7 24.4 19.9 95 0.5 CALM 0 0 0 0 1012.4 1012.2 0.0
29/08:00am 20.6 24.2 19.8 95 0.5 CALM 0 0 0 0 1012.3 1012.1 0.0
29/07:30am 20.6 24.1 19.6 94 0.6 CALM 0 0 0 0 1012.0 1011.8 0.0
29/07:27am 20.5 24.0 19.5 94 0.6 CALM 0 0 0 0 1012.0 1011.8 0.0
29/07:00am 20.5 23.9 19.3 93 0.8 CALM 0 0 0 0 1011.8 1011.6 0.0
29/06:30am 20.6 24.0 19.3 92 0.8 CALM 0 0 0 0 1011.5 1011.3 0.0
29/06:00am 20.6 24.0 19.3 92 0.8 CALM 0 0 0 0 1011.4 1011.2 0.0
29/05:31am 20.5 22.7 19.2 92 0.8 NE 6 6 3 3 1011.5 1011.3 0.0
29/05:30am 20.5 22.7 19.2 92 0.8 NE 6 6 3 3 1011.5 1011.3 0.0
29/05:00am 20.6 23.8 18.9 90 1.1 CALM 0 0 0 0 1011.6 1011.4 0.0
29/04:30am 20.6 23.8 18.9 90 1.1 CALM 0 0 0 0 1011.6 1011.4 0.0
29/04:00am 20.6 23.8 18.9 90 1.1 CALM 0 0 0 0 1011.7 1011.5 0.0
29/03:30am 20.6 23.8 18.9 90 1.1 CALM 0 0 0 0 1011.9 1011.7 0.0
29/03:00am 20.5 23.7 18.8 90 1.1 CALM 0 0 0 0 1012.4 1012.2 0.0
29/02:30am 20.6 23.8 18.9 90 1.1 CALM 0 0 0 0 1012.5 1012.3 0.0
29/02:00am 20.6 22.7 18.9 90 1.1 W 6 7 3 4 1012.9 1012.7 0.0
29/01:30am 20.6 23.8 18.9 90 1.1 CALM 0 2 0 1 1013.2 1013.0 0.0
29/01:00am 20.7 22.8 19.0 90 1.1 NW 6 7 3 4 1013.4 1013.2 0.0
29/12:30am 20.8 22.9 18.9 89 1.2 WNW 6 7 3 4 1013.8 1013.6 0.0
29/12:00am 20.9 23.3 18.8 88 1.3 WSW 4 7 2 4 1014.0 1013.8 0.0
 
Date/Time
EDT
Temp
°C
App
Temp
°C
Dew
Point
°C
Rel
Hum
%
Delta-T
°C
Wind Press
QNH
hPa
Press
MSL
hPa
Rain since
9am
mm
Dir  Spd
km/h
Gust
km/h
Spd
kts
Gust
kts
28/11:30pm 20.8 23.9 18.6 87 1.4 CALM 0 0 0 0 1014.2 1014.0 0.0
28/11:00pm 20.9 24.0 18.7 87 1.4 CALM 0 0 0 0 1014.4 1014.1 0.0
28/10:30pm 20.8 23.8 18.4 86 1.5 CALM 0 0 0 0 1014.5 1014.2 0.0
28/10:00pm 21.0 24.2 18.8 87 1.4 CALM 0 0 0 0 1014.7 1014.4 0.0
28/09:30pm 21.0 24.1 18.6 86 1.5 CALM 0 0 0 0 1014.6 1014.3 0.0
28/09:00pm 21.0 24.1 18.6 86 1.5 CALM 0 0 0 0 1014.2 1014.0 0.0
28/08:30pm 21.1 23.0 18.5 85 1.6 W 6 6 3 3 1013.8 1013.6 0.0
28/08:00pm 21.1 22.7 18.3 84 1.7 SSE 7 11 4 6 1013.5 1013.3 0.0
28/07:30pm 21.2 22.5 18.4 84 1.8 SSE 9 13 5 7 1013.3 1013.1 0.0
28/07:00pm 21.3 21.7 18.1 82 2.0 SE 13 17 7 9 1013.2 1013.0 0.0
28/06:30pm 21.5 22.6 18.1 81 2.1 SSE 9 15 5 8 1013.2 1013.0 0.0
28/06:00pm 21.7 22.1 18.1 80 2.2 SSE 13 20 7 11 1012.9 1012.7 0.0
28/05:30pm 22.1 22.5 18.1 78 2.5 SE 13 19 7 10 1012.7 1012.5 0.0
28/05:00pm 22.4 23.2 18.2 77 2.6 SSE 11 17 6 9 1012.5 1012.3 0.0
28/04:30pm 22.8 22.5 18.3 76 2.8 SE 17 20 9 11 1012.4 1012.2 0.0
28/04:00pm 22.9 23.3 18.2 75 3.0 SSE 13 17 7 9 1012.4 1012.2 0.0
28/03:30pm 23.2 23.6 18.1 73 3.2 ESE 13 17 7 9 1012.4 1012.2 0.0
28/03:00pm 23.3 23.8 18.4 74 3.1 SE 13 20 7 11 1012.6 1012.4 0.0
28/02:30pm 23.3 24.6 18.4 74 3.1 SE 9 13 5 7 1012.8 1012.6 0.0
28/02:00pm 23.1 23.8 18.0 73 3.2 SE 11 15 6 8 1013.2 1013.0 0.0
28/01:30pm 23.1 23.8 18.0 73 3.2 SE 11 15 6 8 1013.5 1013.3 0.0
28/01:00pm 23.0 23.7 17.9 73 3.2 ESE 11 17 6 9 1013.8 1013.6 0.0
28/12:30pm 23.3 24.5 18.2 73 3.2 S 9 13 5 7 1014.1 1013.9 0.0
28/12:00pm 23.1 23.8 18.0 73 3.2 SE 11 17 6 9 1014.4 1014.1 0.0
28/11:30am 22.6 24.0 17.7 74 3.0 S 7 13 4 7 1014.7 1014.4 0.0
28/11:00am 22.2 22.8 17.8 76 2.7 SSW 11 15 6 8 1014.8 1014.5 0.0
28/10:30am 22.0 23.4 17.8 77 2.6 SW 7 13 4 7 1014.8 1014.5 0.0
28/10:00am 21.4 22.2 17.4 78 2.5 SW 9 13 5 7 1014.9 1014.6 0.0
28/09:30am 21.2 22.1 17.6 80 2.2 SSW 9 17 5 9 1014.8 1014.5 0.0
28/09:00am 20.8 22.3 17.6 82 2.0 WSW 6 7 3 4 1014.5 1014.2 0.0
28/08:30am 20.2 21.5 17.2 83 1.8 WSW 6 7 3 4 1014.2 1014.0 0.0
28/08:00am 19.6 20.9 17.0 85 1.6 W 6 7 3 4 1013.9 1013.7 0.0
28/07:30am 19.1 20.1 16.3 84 1.7 SW 6 7 3 4 1013.5 1013.3 0.0
28/07:00am 19.4 20.2 16.4 83 1.8 SW 7 17 4 9 1013.0 1012.8 0.0
28/06:30am 19.6 20.2 16.8 84 1.7 SW 9 13 5 7 1012.5 1012.3 0.0
28/06:00am 20.2 19.9 17.4 84 1.7 S 15 26 8 14 1012.2 1012.0 0.0
28/05:51am 20.2 20.3 17.4 84 1.7 S 13 26 7 14 1012.0 1011.8 0.0
28/05:30am 20.7 21.6 18.5 87 1.4 S 11 20 6 11 1011.6 1011.4 0.0
28/05:26am 20.7 21.6 18.5 87 1.4 SSW 11 20 6 11 1011.5 1011.3 0.0
28/05:00am 21.0 20.6 18.9 88 1.3 S 19 30 10 16 1011.0 1010.8 0.0
28/04:30am 21.1 20.3 19.2 89 1.2 SSE 22 32 12 17 1010.7 1010.5 0.0
28/04:00am 21.3 21.0 19.6 90 1.1 SSE 20 32 11 17 1010.5 1010.3 0.0
28/03:30am 21.2 21.9 19.7 91 1.0 SSE 15 22 8 12 1010.7 1010.5 0.0
28/03:00am 20.4 21.6 19.1 92 0.8 SSE 11 15 6 8 1010.5 1010.3 0.0
28/02:30am 20.1 22.0 18.6 91 0.9 W 6 7 3 4 1010.6 1010.4 0.0
28/02:00am 20.6 22.6 19.1 91 0.9 SW 7 9 4 5 1010.4 1010.2 0.0
28/01:30am 20.8 23.0 19.1 90 1.1 N 6 13 3 7 1010.1 1009.9 0.0
28/01:00am 21.5 23.6 19.4 88 1.3 ESE 7 11 4 6 1010.6 1010.4 0.0
28/12:30am 21.4 23.2 19.5 89 1.2 SSE 9 13 5 7 1011.3 1011.1 0.0
28/12:00am 20.8 23.0 19.1 90 1.1 SW 6 7 3 4 1011.2 1011.0 0.0
 
Date/Time
EDT
Temp
°C
App
Temp
°C
Dew
Point
°C
Rel
Hum
%
Delta-T
°C
Wind Press
QNH
hPa
Press
MSL
hPa
Rain since
9am
mm
Dir  Spd
km/h
Gust
km/h
Spd
kts
Gust
kts
27/11:30pm 21.1 23.5 18.9 87 1.4 WSW 4 7 2 4 1010.9 1010.7 0.0
27/11:00pm 21.9 24.1 19.3 85 1.7 S 6 7 3 4 1011.2 1011.0 0.0
27/10:30pm 22.6 24.8 19.6 83 1.9 ESE 7 9 4 5 1011.1 1010.9 0.0
27/10:00pm 22.5 23.8 19.3 82 2.0 E 11 13 6 7 1010.8 1010.6 0.0
27/09:30pm 22.4 24.1 19.4 83 1.9 E 9 13 5 7 1010.5 1010.3 0.0
27/09:00pm 22.6 24.3 19.4 82 2.0 ENE 9 13 5 7 1010.3 1010.1 0.0
27/08:30pm 23.0 24.5 19.8 82 2.1 ENE 11 17 6 9 1010.1 1009.9 0.0
27/08:00pm 23.4 24.6 19.8 80 2.3 ENE 13 20 7 11 1009.6 1009.4 0.0
27/07:30pm 23.6 24.8 19.9 80 2.4 ENE 13 19 7 10 1009.5 1009.3 0.0
27/07:00pm 24.2 25.4 19.9 77 2.8 ENE 13 20 7 11 1009.6 1009.4 0.0
27/06:30pm 25.2 26.1 20.0 73 3.4 ENE 15 20 8 11 1009.7 1009.5 0.0
27/06:00pm 26.1 27.1 20.2 70 3.9 ENE 15 20 8 11 1009.9 1009.7 0.0
27/05:30pm 26.9 27.9 20.3 67 4.3 ENE 15 22 8 12 1010.0 1009.8 0.0
27/05:00pm 27.1 27.6 20.0 65 4.6 ENE 17 28 9 15 1010.2 1010.0 0.0
27/04:30pm 27.6 27.9 19.7 62 5.2 ENE 17 28 9 15 1010.5 1010.3 0.0
27/04:00pm 28.1 28.2 19.1 58 5.8 NE 17 26 9 14 1010.8 1010.6 0.0
27/03:30pm 28.8 28.6 17.7 51 7.1 NE 15 20 8 11 1011.2 1011.0 0.0
27/03:00pm 28.6 27.6 16.5 48 7.6 NE 17 22 9 12 1011.9 1011.7 0.0
27/02:30pm 28.2 27.7 16.8 50 7.1 NNE 15 22 8 12 1012.3 1012.1 0.0
27/02:00pm 27.9 27.0 16.8 50 6.9 N 17 26 9 14 1013.0 1012.8 0.0
27/01:30pm 27.4 27.9 18.4 58 5.8 NNE 13 19 7 10 1013.7 1013.5 0.0
27/01:00pm 26.4 26.5 17.5 58 5.6 N 13 24 7 13 1014.5 1014.2 0.0
27/12:30pm 26.1 26.4 18.0 61 5.1 N 13 20 7 11 1015.1 1014.8 0.0
27/12:00pm 25.5 25.3 17.7 62 4.9 N 15 22 8 12 1015.5 1015.2 0.0
27/11:30am 24.6 24.1 17.8 66 4.3 N 17 20 9 11 1016.0 1015.7 0.0
27/11:00am 24.5 24.6 18.4 69 3.9 N 15 22 8 12 1016.3 1016.0 0.0
27/10:30am 23.5 23.4 17.9 71 3.5 N 15 24 8 13 1016.7 1016.4 0.0
27/10:00am 22.7 23.9 18.3 76 2.8 NNW 9 13 5 7 1017.0 1016.7 0.0
27/09:30am 21.4 22.5 18.0 81 2.1 NNW 9 13 5 7 1017.3 1017.0 0.0
27/09:00am 20.5 22.3 18.4 88 1.3 WSW 6 9 3 5 1017.4 1017.1 0.0
27/08:30am 19.7 21.4 18.5 93 0.7 WSW 7 9 4 5 1017.3 1017.0 0.0
27/08:00am 18.4 20.6 17.4 94 0.6 WSW 2 7 1 4 1017.0 1016.7 0.0
27/07:30am 17.7 20.1 16.9 95 0.5 CALM 0 0 0 0 1016.7 1016.4 0.0
27/07:00am 17.8 20.1 16.8 94 0.6 CALM 0 0 0 0 1016.4 1016.1 0.0
27/06:30am 18.1 20.5 17.0 93 0.7 CALM 0 0 0 0 1016.3 1016.0 0.0
27/06:00am 18.8 20.1 17.6 93 0.7 ENE 7 7 4 4 1016.1 1015.8 0.0
27/05:30am 19.0 20.4 17.8 93 0.7 NNE 7 9 4 5 1016.1 1015.8 0.0
27/05:00am 18.8 20.3 17.6 93 0.7 NE 6 7 3 4 1016.2 1015.9 0.0
27/04:30am 18.9 21.2 17.7 93 0.7 NNE 2 6 1 3 1016.3 1016.0 0.0
27/04:00am 19.2 21.6 18.0 93 0.7 NE 2 7 1 4 1016.3 1016.0 0.0
27/03:30am 19.3 22.1 18.0 92 0.8 CALM 0 0 0 0 1016.5 1016.2 0.0
27/03:00am 19.7 22.1 18.0 90 1.1 NE 2 6 1 3 1016.8 1016.5 0.0
27/02:30am 20.1 23.1 18.4 90 1.1 CALM 0 0 0 0 1017.0 1016.7 0.0
27/02:00am 20.6 23.8 18.9 90 1.1 CALM 0 0 0 0 1017.3 1017.0 0.0
27/01:30am 20.7 24.0 19.2 91 0.9 CALM 0 6 0 3 1017.6 1017.3 0.0
27/01:00am 20.6 24.0 19.3 92 0.8 CALM 0 0 0 0 1017.7 1017.4 0.0
27/12:30am 20.5 23.5 19.2 92 0.8 N 2 7 1 4 1017.9 1017.6 0.0
27/12:00am 20.1 23.3 18.9 93 0.8 CALM 0 0 0 0 1018.0 1017.7 0.0
 
Date/Time
EDT
Temp
°C
App
Temp
°C
Dew
Point
°C
Rel
Hum
%
Delta-T
°C
Wind Press
QNH
hPa
Press
MSL
hPa
Rain since
9am
mm
Dir  Spd
km/h
Gust
km/h
Spd
kts
Gust
kts
26/11:30pm 19.8 22.8 18.5 92 0.8 CALM 0 0 0 0 1018.1 1017.8 0.0
26/11:00pm 19.6 22.5 18.3 92 0.8 CALM 0 0 0 0 1018.2 1017.9 0.0
26/10:30pm 19.9 22.9 18.4 91 0.9 CALM 0 0 0 0 1018.1 1017.8 0.0
26/10:00pm 20.5 23.5 18.4 88 1.3 CALM 0 0 0 0 1018.0 1017.7 0.0
26/09:30pm 21.2 23.2 19.1 88 1.3 ENE 7 9 4 5 1017.6 1017.3 0.0
26/09:00pm 21.6 23.3 19.3 87 1.5 ENE 9 11 5 6 1017.3 1017.0 0.0
26/08:30pm 21.9 23.6 19.3 85 1.7 ENE 9 13 5 7 1016.8 1016.5 0.0
26/08:00pm 22.3 24.0 19.3 83 1.9 ENE 9 15 5 8 1016.5 1016.2 0.0
26/07:30pm 22.8 24.1 19.2 80 2.3 ENE 11 15 6 8 1016.0 1015.7 0.0
26/07:00pm 23.5 24.3 19.0 76 2.9 ENE 13 19 7 10 1015.7 1015.4 0.0
26/06:30pm 24.5 24.9 19.1 72 3.5 ENE 15 19 8 10 1015.3 1015.0 0.0
26/06:00pm 25.2 25.0 19.3 70 3.8 E 19 26 10 14 1014.8 1014.5 0.0
26/05:30pm 25.7 25.8 19.1 67 4.2 E 17 24 9 13 1014.7 1014.4 0.0
26/05:00pm 26.1 26.0 19.5 67 4.3 E 19 24 10 13 1014.5 1014.2 0.0
26/04:30pm 26.9 27.4 20.0 66 4.5 E 17 24 9 13 1014.2 1014.0 0.0
26/04:00pm 26.8 26.6 19.4 64 4.8 ENE 19 26 10 14 1014.2 1014.0 0.0
26/03:30pm 27.3 27.4 19.1 61 5.3 E 17 24 9 13 1014.4 1014.1 0.0
26/03:00pm 27.7 28.2 18.4 57 5.9 ENE 13 22 7 12 1014.4 1014.1 0.0
26/02:30pm 27.3 28.0 18.0 56 5.9 ENE 11 20 6 11 1014.6 1014.3 0.0

Other Formats:

Comma delimited format used in spreadsheet applications
http://www.bom.gov.au/fwo/IDN60801/IDN60801.95761.axf

JavaScript Object Notation format (JSON) in row-major order
http://www.bom.gov.au/fwo/IDN60801/IDN60801.95761.json